Météo Nord-Pas-de-Calais   La météo au plus près de chez vous

Station météorologique

Observations météo à Nimes-Garons (30258)

30258001 94 m Dernier relevé à 21:54
24.2°C
Humidité 76 % Vent 6.1 km/h 1020.8 hPa

Journée consultée

Dimanche 6 Septembre 2026

Synthèse de la journée

Périodes de référence en UTC

Température maximale

35.2°C

à 14:36

06h 06h

Température minimale

23.6°C

à 08:00

18h 18h

Rafale maximale

36 km/h

à 15:24

00h 00h

Précipitations

0 mm

Cumul quotidien

06h 06h

Graphiques de la journée

Heure locale Réduire

Données détaillées

Relevés météo

Pas de 6 minutes Afficher les relevés infra-horaires
Relevés météo détaillés à Nimes-Garons pour le Dimanche 6 Septembre 2026
Heure Température °C Point de rosée °C Humidité % Vent moyen (raf.), km/h Précipitations mm Visibilité m Pression hPa
21:54 24.2 °C 21.5 °C 85 % 6 km/h (9 km/h) 0 mm0 mm 58560 m 1021.7 hPa
21:48 24.3 °C 21.4 °C 84 % 5 km/h (9 km/h) 0 mm0 mm 58940 m 1021.6 hPa
21:42 24.4 °C 21.5 °C 84 % 5 km/h (8 km/h) 0 mm0 mm 59470 m 1021.6 hPa
21:36 24.4 °C 21.3 °C 83 % 5 km/h (8 km/h) 0 mm0 mm 60000 m 1021.4 hPa
21:30 24.5 °C 21 °C 81 % 5 km/h (8 km/h) 0 mm0 mm 60000 m 1021.3 hPa
21:24 24.6 °C 21.1 °C 81 % 5 km/h (9 km/h) 0 mm0 mm 60000 m 1021.2 hPa
21:18 24.8 °C 21.1 °C 80 % 5 km/h (7 km/h) 0 mm0 mm 60000 m 1021.2 hPa
21:12 24.9 °C 21 °C 79 % 5 km/h (9 km/h) 0 mm0 mm 60000 m 1021.1 hPa
21:06 25 °C 20.9 °C 78 % 5 km/h (9 km/h) 0 mm0 mm 60000 m 1020.9 hPa
21:00 25.2 °C 20.9 °C 77 % 5 km/h (8 km/h) 0 mm0 mm 60000 m 1020.9 hPa
20:54 25.3 °C 20.8 °C 76 % 6 km/h (10 km/h) 0 mm0 mm 60000 m 1020.8 hPa
20:48 25.3 °C 20.5 °C 75 % 7 km/h (12 km/h) 0 mm0 mm 60000 m 1020.7 hPa
20:42 25.4 °C 20.4 °C 74 % 7 km/h (11 km/h) 0 mm0 mm 60000 m 1020.7 hPa
20:36 25.6 °C 20.2 °C 72 % 9 km/h (13 km/h) 0 mm0 mm 60000 m 1020.5 hPa
20:30 25.8 °C 20.1 °C 71 % 9 km/h (13 km/h) 0 mm0 mm 60000 m 1020.4 hPa
20:24 26 °C 20.3 °C 71 % 10 km/h (17 km/h) 0 mm0 mm 60000 m 1020.4 hPa
20:18 26.1 °C 20 °C 69 % 10 km/h (17 km/h) 0 mm0 mm 60000 m 1020.4 hPa
20:12 26.3 °C 20.2 °C 69 % 10 km/h (15 km/h) 0 mm0 mm 60000 m 1020.3 hPa
20:06 26.5 °C 19.9 °C 67 % 10 km/h (16 km/h) 0 mm0 mm 60000 m 1020.3 hPa
20:00 26.6 °C 19.5 °C 65 % 10 km/h (15 km/h) 0 mm0 mm 60000 m 1020.3 hPa
19:54 26.8 °C 19.7 °C 65 % 9 km/h (15 km/h) 0 mm0 mm 60000 m 1020.3 hPa
19:48 27 °C 19.6 °C 64 % 10 km/h (16 km/h) 0 mm0 mm 60000 m 1020.3 hPa
19:42 27.3 °C 19.6 °C 63 % 12 km/h (17 km/h) 0 mm0 mm 60000 m 1020.2 hPa
19:36 27.5 °C 19.6 °C 62 % 12 km/h (17 km/h) 0 mm0 mm 60000 m 1020.2 hPa
19:30 27.7 °C 19.8 °C 62 % 12 km/h (18 km/h) 0 mm0 mm 16990 m 1020.1 hPa
19:24 27.9 °C 19.7 °C 61 % 16 km/h (23 km/h) 0 mm0 mm 18300 m 1020.1 hPa
19:18 28.1 °C 19.3 °C 59 % 16 km/h (23 km/h) 0 mm0 mm 60000 m 1020.1 hPa
19:12 28.4 °C 19.3 °C 58 % 15 km/h (21 km/h) 0 mm0 mm 60000 m 1020 hPa
19:06 28.5 °C 19.2 °C 57 % 15 km/h (21 km/h) 0 mm0 mm 60000 m 1020 hPa
19:00 28.7 °C 19.1 °C 56 % 16 km/h (22 km/h) 0 mm0 mm 60000 m 1020 hPa
18:54 28.8 °C 18.9 °C 55 % 17 km/h (24 km/h) 0 mm0 mm 60000 m 1020 hPa
18:48 28.8 °C 18.9 °C 55 % 17 km/h (25 km/h) 0 mm0 mm 60000 m 1020 hPa
18:42 29.3 °C 19.3 °C 55 % 15 km/h (25 km/h) 0 mm0 mm 60000 m 1020 hPa
18:36 29.2 °C 19.2 °C 55 % 18 km/h (26 km/h) 0 mm0 mm 60000 m 1019.9 hPa
18:30 29.4 °C 18.8 °C 53 % 19 km/h (26 km/h) 0 mm0 mm 60000 m 1019.9 hPa
18:24 29.7 °C 18.8 °C 52 % 18 km/h (26 km/h) 0 mm0 mm 60000 m 1019.8 hPa
18:18 29.9 °C 18 °C 49 % 17 km/h (25 km/h) 0 mm0 mm 60000 m 1019.8 hPa
18:12 30.2 °C 18.9 °C 51 % 16 km/h (25 km/h) 0 mm0 mm 60000 m 1019.8 hPa
18:06 30.1 °C 18.2 °C 49 % 18 km/h (27 km/h) 0 mm0 mm 60000 m 1019.7 hPa
18:00 30.1 °C 18.8 °C 51 % 17 km/h (27 km/h) 0 mm0 mm 60000 m 1019.6 hPa
17:54 30.5 °C 18.9 °C 50 % 15 km/h (23 km/h) 0 mm0 mm 60000 m 1019.5 hPa
17:48 30.5 °C 18.6 °C 49 % 17 km/h (25 km/h) 0 mm0 mm 60000 m 1019.5 hPa
17:42 30.2 °C 18.3 °C 49 % 18 km/h (30 km/h) 0 mm0 mm 60000 m 1019.5 hPa
17:36 30.2 °C 18.6 °C 50 % 19 km/h (31 km/h) 0 mm0 mm 60000 m 1019.5 hPa
17:30 30.3 °C 19.3 °C 52 % 19 km/h (31 km/h) 0 mm0 mm 60000 m 1019.6 hPa
17:24 30.5 °C 20.1 °C 54 % 19 km/h (30 km/h) 0 mm0 mm 60000 m 1019.5 hPa
17:18 30.6 °C 20.2 °C 54 % 20 km/h (30 km/h) 0 mm0 mm 60000 m 1019.5 hPa
17:12 30.1 °C 20.4 °C 56 % 19 km/h (30 km/h) 0 mm0 mm 60000 m 1019.6 hPa
17:06 30.5 °C 20.4 °C 55 % 20 km/h (31 km/h) 0 mm0 mm 60000 m 1019.5 hPa
17:00 30.7 °C 20.6 °C 55 % 20 km/h (31 km/h) 0 mm0 mm 60000 m 1019.5 hPa
16:54 30.7 °C 20.6 °C 55 % 19 km/h (30 km/h) 0 mm0 mm 18550 m 1019.5 hPa
16:48 31.1 °C 20.4 °C 53 % 20 km/h (32 km/h) 0 mm0 mm 18550 m 1019.4 hPa
16:42 31.6 °C 20.5 °C 52 % 22 km/h (32 km/h) 0 mm0 mm 60000 m 1019.4 hPa
16:36 31.7 °C 19.7 °C 49 % 25 km/h (32 km/h) 0 mm0 mm 60000 m 1019.4 hPa
16:30 31.9 °C 19.9 °C 49 % 23 km/h (32 km/h) 0 mm0 mm 60000 m 1019.4 hPa
16:24 32.2 °C 19.5 °C 47 % 23 km/h (32 km/h) 0 mm0 mm 60000 m 1019.4 hPa
16:18 31.9 °C 19.2 °C 47 % 24 km/h (32 km/h) 0 mm0 mm 60000 m 1019.5 hPa
16:12 32.1 °C 19.7 °C 48 % 24 km/h (32 km/h) 0 mm0 mm 60000 m 1019.4 hPa
16:06 32.1 °C 19.4 °C 47 % 24 km/h (33 km/h) 0 mm0 mm 60000 m 1019.4 hPa
16:00 31.4 °C 18.7 °C 47 % 25 km/h (33 km/h) 0 mm0 mm 60000 m 1019.5 hPa
15:54 31.4 °C 19.4 °C 49 % 26 km/h (33 km/h) 0 mm0 mm 60000 m 1019.5 hPa
15:48 31.7 °C 19.3 °C 48 % 25 km/h (33 km/h) 0 mm0 mm 18630 m 1019.5 hPa
15:42 32 °C 19.3 °C 47 % 24 km/h (33 km/h) 0 mm0 mm 60000 m 1019.5 hPa
15:36 32.3 °C 18.5 °C 44 % 24 km/h (32 km/h) 0 mm0 mm 60000 m 1019.5 hPa
15:30 33.3 °C 18.6 °C 42 % 24 km/h (33 km/h) 0 mm0 mm 60000 m 1019.4 hPa
15:24 33.2 °C 18.2 °C 41 % 25 km/h (36 km/h) 0 mm0 mm 60000 m 1019.6 hPa
15:18 33.6 °C 17.3 °C 38 % 19 km/h (29 km/h) 0 mm0 mm 19590 m 1019.5 hPa
15:12 34.8 °C 16.2 °C 33 % 14 km/h (24 km/h) 0 mm0 mm 18730 m 1019.4 hPa
15:06 34.8 °C 16.2 °C 33 % 12 km/h (24 km/h) 0 mm0 mm 19110 m 1019.5 hPa
15:00 34.6 °C 16 °C 33 % 13 km/h (22 km/h) 0 mm0 mm 18600 m 1019.5 hPa
14:54 34.7 °C 16.1 °C 33 % 15 km/h (27 km/h) 0 mm0 mm 15690 m 1019.5 hPa
14:48 34.7 °C 15.6 °C 32 % 15 km/h (27 km/h) 0 mm0 mm 17420 m 1019.5 hPa
14:42 34.7 °C 16.1 °C 33 % 14 km/h (24 km/h) 0 mm0 mm 16260 m 1019.4 hPa
14:36 35.2 °C 16.5 °C 33 % 14 km/h (22 km/h) 0 mm0 mm 17170 m 1019.4 hPa
14:30 35.1 °C 15.9 °C 32 % 12 km/h (22 km/h) 0 mm0 mm 60000 m 1019.4 hPa
14:24 35 °C 15.3 °C 31 % 10 km/h (16 km/h) 0 mm0 mm 16430 m 1019.4 hPa
14:18 35.1 °C 14.9 °C 30 % 10 km/h (16 km/h) 0 mm0 mm 60000 m 1019.5 hPa
14:12 34.8 °C 14.7 °C 30 % 8 km/h (16 km/h) 0 mm0 mm 9120 m 1019.5 hPa
14:06 34.5 °C 13.9 °C 29 % 10 km/h (18 km/h) 0 mm0 mm 17150 m 1019.5 hPa
14:00 34.5 °C 13.9 °C 29 % 10 km/h (19 km/h) 0 mm0 mm 18750 m 1019.5 hPa
13:54 34.5 °C 14.9 °C 31 % 9 km/h (14 km/h) 0 mm0 mm 60000 m 1019.6 hPa
13:48 34.3 °C 14.7 °C 31 % 11 km/h (18 km/h) 0 mm0 mm 18670 m 1019.6 hPa
13:42 34.1 °C 14.6 °C 31 % 12 km/h (19 km/h) 0 mm0 mm 18670 m 1019.6 hPa
13:36 34.2 °C 15.1 °C 32 % 11 km/h (19 km/h) 0 mm0 mm 19950 m 1019.7 hPa
13:30 33.7 °C 14.2 °C 31 % 13 km/h (22 km/h) 0 mm0 mm 19930 m 1019.8 hPa
13:24 33.5 °C 14.5 °C 32 % 14 km/h (24 km/h) 0 mm0 mm 60000 m 1019.8 hPa
13:18 33.4 °C 14 °C 31 % 16 km/h (24 km/h) 0 mm0 mm 60000 m 1019.9 hPa
13:12 33.9 °C 15.4 °C 33 % 15 km/h (25 km/h) 0 mm0 mm 60000 m 1019.8 hPa
13:06 33.3 °C 14.8 °C 33 % 17 km/h (25 km/h) 0 mm0 mm 60000 m 1019.9 hPa
13:00 33.1 °C 14.2 °C 32 % 15 km/h (24 km/h) 0 mm0 mm 19000 m 1019.9 hPa
12:54 33.5 °C 15 °C 33 % 13 km/h (24 km/h) 0 mm0 mm 19000 m 1020 hPa
12:48 33.2 °C 15.2 °C 34 % 14 km/h (25 km/h) 0 mm0 mm 60000 m 1020.1 hPa
12:42 32.6 °C 15.1 °C 35 % 17 km/h (25 km/h) 0 mm0 mm 60000 m 1020.1 hPa
12:36 32.8 °C 15.3 °C 35 % 17 km/h (25 km/h) 0 mm0 mm 60000 m 1020.2 hPa
12:30 32.5 °C 15.1 °C 35 % 17 km/h (23 km/h) 0 mm0 mm 60000 m 1020.2 hPa
12:24 32.4 °C 15.4 °C 36 % 17 km/h (26 km/h) 0 mm0 mm 60000 m 1020.2 hPa
12:18 32.5 °C 15.1 °C 35 % 15 km/h (26 km/h) 0 mm0 mm 60000 m 1020.2 hPa
12:12 32.7 °C 15.7 °C 36 % 14 km/h (24 km/h) 0 mm0 mm 60000 m 1020.3 hPa
12:06 32.3 °C 15.3 °C 36 % 14 km/h (22 km/h) 0 mm0 mm 60000 m 1020.3 hPa
12:00 32.3 °C 15.3 °C 36 % 14 km/h (27 km/h) 0 mm0 mm 60000 m 1020.3 hPa
11:54 32.3 °C 15.3 °C 36 % 17 km/h (29 km/h) 0 mm0 mm 60000 m 1020.2 hPa
11:48 31.8 °C 14.9 °C 36 % 21 km/h (32 km/h) 0 mm0 mm 60000 m 1020.3 hPa
11:42 31.5 °C 15 °C 37 % 21 km/h (32 km/h) 0 mm0 mm 60000 m 1020.2 hPa
11:36 31.2 °C 14.8 °C 37 % 20 km/h (31 km/h) 0 mm0 mm 60000 m 1020.3 hPa
11:30 31.2 °C 15.2 °C 38 % 20 km/h (31 km/h) 0 mm0 mm 60000 m 1020.3 hPa
11:24 31.1 °C 15.1 °C 38 % 18 km/h (28 km/h) 0 mm0 mm 60000 m 1020.3 hPa
11:18 31.3 °C 16.1 °C 40 % 18 km/h (30 km/h) 0 mm0 mm 60000 m 1020.1 hPa
11:12 30.8 °C 15.6 °C 40 % 19 km/h (34 km/h) 0 mm0 mm 60000 m 1020.2 hPa
11:06 30.6 °C 15.5 °C 40 % 18 km/h (31 km/h) 0 mm0 mm 60000 m 1020.2 hPa
11:00 30.3 °C 15.6 °C 41 % 19 km/h (32 km/h) 0 mm0 mm 60000 m 1020.2 hPa
10:54 29.8 °C 15.1 °C 41 % 20 km/h (32 km/h) 0 mm0 mm 60000 m 1020.3 hPa
10:48 29.9 °C 15.6 °C 42 % 20 km/h (29 km/h) 0 mm0 mm 60000 m 1020.3 hPa
10:42 29.3 °C 15.4 °C 43 % 21 km/h (32 km/h) 0 mm0 mm 60000 m 1020.3 hPa
10:36 29.3 °C 15.8 °C 44 % 21 km/h (33 km/h) 0 mm0 mm 60000 m 1020.2 hPa
10:30 28.9 °C 15.4 °C 44 % 22 km/h (33 km/h) 0 mm0 mm 60000 m 1020.2 hPa
10:24 28.7 °C 15.6 °C 45 % 22 km/h (34 km/h) 0 mm0 mm 60000 m 1020.3 hPa
10:18 28.8 °C 15.7 °C 45 % 21 km/h (34 km/h) 0 mm0 mm 60000 m 1020.2 hPa
10:12 28.5 °C 15.8 °C 46 % 21 km/h (33 km/h) 0 mm0 mm 60000 m 1020.2 hPa
10:06 28.3 °C 15.6 °C 46 % 21 km/h (33 km/h) 0 mm0 mm 60000 m 1020.2 hPa
10:00 28.2 °C 15.8 °C 47 % 21 km/h (31 km/h) 0 mm0 mm 60000 m 1020.2 hPa
09:54 28.1 °C 15.7 °C 47 % 18 km/h (30 km/h) 0 mm0 mm 60000 m 1020.2 hPa
09:48 28.3 °C 15.9 °C 47 % 18 km/h (29 km/h) 0 mm0 mm 60000 m 1020.2 hPa
09:42 27.9 °C 15.5 °C 47 % 19 km/h (32 km/h) 0 mm0 mm 60000 m 1020.2 hPa
09:36 27.7 °C 15.7 °C 48 % 21 km/h (32 km/h) 0 mm0 mm 60000 m 1020.1 hPa
09:30 27.4 °C 15.4 °C 48 % 21 km/h (31 km/h) 0 mm0 mm 60000 m 1020.1 hPa
09:24 27.4 °C 15.4 °C 48 % 17 km/h (30 km/h) 0 mm0 mm 60000 m 1020.1 hPa
09:18 27.5 °C 15.8 °C 49 % 14 km/h (23 km/h) 0 mm0 mm 60000 m 1020.1 hPa
09:12 27.2 °C 15.9 °C 50 % 17 km/h (32 km/h) 0 mm0 mm 60000 m 1020 hPa
09:06 26.7 °C 15.4 °C 50 % 19 km/h (32 km/h) 0 mm0 mm 60000 m 1020 hPa
09:00 26.6 °C 15.6 °C 51 % 19 km/h (30 km/h) 0 mm0 mm 60000 m 1020 hPa
08:54 26.3 °C 15.4 °C 51 % 19 km/h (30 km/h) 0 mm0 mm 60000 m 1020.1 hPa
08:48 26.1 °C 15.5 °C 52 % 17 km/h (27 km/h) 0 mm0 mm 60000 m 1020.2 hPa
08:42 26 °C 15.4 °C 52 % 18 km/h (29 km/h) 0 mm0 mm 60000 m 1020.2 hPa
08:36 25.8 °C 15.2 °C 52 % 20 km/h (32 km/h) 0 mm0 mm 60000 m 1020.2 hPa
08:30 25.6 °C 15.3 °C 53 % 19 km/h (32 km/h) 0 mm0 mm 60000 m 1020.2 hPa
08:24 25.5 °C 15.5 °C 54 % 17 km/h (30 km/h) 0 mm0 mm 60000 m 1020.2 hPa
08:18 25.3 °C 15.3 °C 54 % 17 km/h (30 km/h) 0 mm0 mm 60000 m 1020.2 hPa
08:12 25.1 °C 15.1 °C 54 % 15 km/h (24 km/h) 0 mm0 mm 60000 m 1020.2 hPa
08:06 24.8 °C 15.1 °C 55 % 14 km/h (22 km/h) 0 mm0 mm 60000 m 1020.2 hPa
08:00 24.7 °C 15.1 °C 55 % 14 km/h (23 km/h) 0 mm0 mm 60000 m 1020.1 hPa
07:54 24.6 °C 15.2 °C 56 % 14 km/h (24 km/h) 0 mm0 mm 60000 m 1020 hPa
07:48 24.4 °C 15.1 °C 56 % 15 km/h (24 km/h) 0 mm0 mm 60000 m 1020 hPa
07:42 24.4 °C 15.1 °C 56 % 15 km/h (24 km/h) 0 mm0 mm 60000 m 1020 hPa
07:36 24.2 °C 14.9 °C 56 % 14 km/h (24 km/h) 0 mm0 mm 60000 m 1019.9 hPa
07:30 24.1 °C 15 °C 57 % 13 km/h (19 km/h) 0 mm0 mm 60000 m 1019.9 hPa
07:24 23.8 °C 15 °C 58 % 10 km/h (18 km/h) 0 mm0 mm 60000 m 1019.9 hPa
07:18 23.7 °C 14.9 °C 58 % 10 km/h (16 km/h) 0 mm0 mm 60000 m 1020 hPa
07:12 23.7 °C 14.9 °C 58 % 10 km/h (17 km/h) 0 mm0 mm 60000 m 1020 hPa
07:06 23.7 °C 14.9 °C 58 % 12 km/h (19 km/h) 0 mm0 mm 60000 m 1020 hPa
07:00 24.1 °C 14.8 °C 56 % 12 km/h (19 km/h) 0 mm0 mm 60000 m 1019.8 hPa
06:54 24.1 °C 14.8 °C 56 % 12 km/h (18 km/h) 0 mm0 mm 60000 m 1019.8 hPa
06:48 24.2 °C 14.9 °C 56 % 11 km/h (18 km/h) 0 mm0 mm 60000 m 1019.8 hPa
06:42 24.4 °C 14.8 °C 55 % 13 km/h (22 km/h) 0 mm0 mm 60000 m 1019.8 hPa
06:36 24.7 °C 15.1 °C 55 % 14 km/h (23 km/h) 0 mm0 mm 60000 m 1019.8 hPa
06:30 24.8 °C 15.1 °C 55 % 14 km/h (24 km/h) 0 mm0 mm 60000 m 1019.8 hPa
06:24 24.8 °C 14.9 °C 54 % 15 km/h (24 km/h) 0 mm0 mm 60000 m 1019.6 hPa
06:18 24.9 °C 15 °C 54 % 17 km/h (27 km/h) 0 mm0 mm 60000 m 1019.5 hPa
06:12 24.9 °C 15 °C 54 % 17 km/h (29 km/h) 0 mm0 mm 60000 m 1019.5 hPa
06:06 24.9 °C 14.7 °C 53 % 19 km/h (32 km/h) 0 mm0 mm 60000 m 1019.5 hPa
06:00 24.9 °C 14.7 °C 53 % 19 km/h (32 km/h) 0 mm0 mm 60000 m 1019.5 hPa
05:54 24.9 °C 14.7 °C 53 % 18 km/h (32 km/h) 0 mm0 mm 60000 m 1019.5 hPa
05:48 24.9 °C 14.7 °C 53 % 17 km/h (30 km/h) 0 mm0 mm 60000 m 1019.5 hPa
05:42 24.9 °C 14.7 °C 53 % 18 km/h (28 km/h) 0 mm0 mm 60000 m 1019.4 hPa
05:36 25 °C 14.5 °C 52 % 18 km/h (28 km/h) 0 mm0 mm 60000 m 1019.4 hPa
05:30 24.9 °C 14.7 °C 53 % 17 km/h (26 km/h) 0 mm0 mm 60000 m 1019.4 hPa
05:24 24.9 °C 14.4 °C 52 % 17 km/h (26 km/h) 0 mm0 mm 60000 m 1019.4 hPa
05:18 24.8 °C 14.6 °C 53 % 15 km/h (25 km/h) 0 mm0 mm 60000 m 1019.5 hPa
05:12 24.9 °C 14.7 °C 53 % 16 km/h (25 km/h) 0 mm0 mm 60000 m 1019.5 hPa
05:06 24.8 °C 14.6 °C 53 % 15 km/h (23 km/h) 0 mm0 mm 60000 m 1019.6 hPa
05:00 24.8 °C 14.6 °C 53 % 15 km/h (25 km/h) 0 mm0 mm 60000 m 1019.6 hPa
04:54 24.7 °C 14.5 °C 53 % 15 km/h (24 km/h) 0 mm0 mm 60000 m 1019.6 hPa
04:48 24.7 °C 14.5 °C 53 % 14 km/h (24 km/h) 0 mm0 mm 60000 m 1019.7 hPa
04:42 24.3 °C 14.4 °C 54 % 13 km/h (19 km/h) 0 mm0 mm 60000 m 1019.7 hPa
04:36 24.2 °C 14.3 °C 54 % 11 km/h (19 km/h) 0 mm0 mm 60000 m 1019.8 hPa
04:30 23.8 °C 14.5 °C 56 % 9 km/h (14 km/h) 0 mm0 mm 60000 m 1019.8 hPa
04:24 23.9 °C 14.3 °C 55 % 9 km/h (15 km/h) 0 mm0 mm 60000 m 1019.9 hPa
04:18 24.2 °C 14.3 °C 54 % 11 km/h (16 km/h) 0 mm0 mm 60000 m 1020 hPa
04:12 24.4 °C 14.2 °C 53 % 12 km/h (19 km/h) 0 mm0 mm 60000 m 1020 hPa
04:06 24.7 °C 14.5 °C 53 % 13 km/h (19 km/h) 0 mm0 mm 60000 m 1020 hPa
04:00 24.8 °C 14.3 °C 52 % 12 km/h (19 km/h) 0 mm0 mm 60000 m 1019.9 hPa
03:54 24.9 °C 14.4 °C 52 % 13 km/h (23 km/h) 0 mm0 mm 60000 m 1019.9 hPa
03:48 25.1 °C 14.2 °C 51 % 14 km/h (23 km/h) 0 mm0 mm 60000 m 1019.9 hPa
03:42 25.3 °C 14.1 °C 50 % 15 km/h (25 km/h) 0 mm0 mm 60000 m 1019.8 hPa
03:36 25.3 °C 14.1 °C 50 % 15 km/h (25 km/h) 0 mm0 mm 60000 m 1019.8 hPa
03:30 25.4 °C 14.2 °C 50 % 16 km/h (23 km/h) 0 mm0 mm 60000 m 1019.7 hPa
03:24 25.5 °C 14.3 °C 50 % 15 km/h (23 km/h) 0 mm0 mm 60000 m 1019.7 hPa
03:18 25.3 °C 14.1 °C 50 % 13 km/h (19 km/h) 0 mm0 mm 60000 m 1019.7 hPa
03:12 25.2 °C 14 °C 50 % 12 km/h (19 km/h) 0 mm0 mm 60000 m 1019.8 hPa
03:06 25 °C 14.2 °C 51 % 12 km/h (18 km/h) 0 mm0 mm 60000 m 1019.9 hPa
03:00 25.2 °C 14.3 °C 51 % 13 km/h (21 km/h) 0 mm0 mm 60000 m 1020 hPa
02:54 25.3 °C 14.1 °C 50 % 13 km/h (21 km/h) 0 mm0 mm 60000 m 1020 hPa
02:48 25.4 °C 14.2 °C 50 % 13 km/h (19 km/h) 0 mm0 mm 60000 m 1019.9 hPa
02:42 25.7 °C 13.9 °C 48 % 13 km/h (25 km/h) 0 mm0 mm 60000 m 1019.9 hPa
02:36 26.1 °C 13.9 °C 47 % 13 km/h (23 km/h) 0 mm0 mm 60000 m 1020 hPa
02:30 26.2 °C 14 °C 47 % 13 km/h (21 km/h) 0 mm0 mm 60000 m 1020 hPa
02:24 26.3 °C 14.1 °C 47 % 14 km/h (21 km/h) 0 mm0 mm 60000 m 1020 hPa
02:18 26.4 °C 13.8 °C 46 % 13 km/h (22 km/h) 0 mm0 mm 60000 m 1020 hPa
02:12 26.5 °C 13.9 °C 46 % 13 km/h (24 km/h) 0 mm0 mm 60000 m 1020 hPa
02:06 26.5 °C 13.9 °C 46 % 13 km/h (23 km/h) 0 mm0 mm 60000 m 1019.9 hPa
02:00 26.6 °C 14 °C 46 % 14 km/h (23 km/h) 0 mm0 mm 60000 m 1019.9 hPa
01:54 26.8 °C 13.9 °C 45 % 14 km/h (21 km/h) 0 mm0 mm 60000 m 1019.9 hPa
01:48 26.8 °C 13.9 °C 45 % 12 km/h (21 km/h) 0 mm0 mm 60000 m 1019.8 hPa
01:42 26.9 °C 14 °C 45 % 11 km/h (20 km/h) 0 mm0 mm 60000 m 1019.8 hPa
01:36 27 °C 13.7 °C 44 % 12 km/h (22 km/h) 0 mm0 mm 60000 m 1019.8 hPa
01:30 27 °C 13.7 °C 44 % 12 km/h (21 km/h) 0 mm0 mm 60000 m 1019.8 hPa
01:24 27.1 °C 13.8 °C 44 % 14 km/h (24 km/h) 0 mm0 mm 60000 m 1019.9 hPa
01:18 27.2 °C 13.9 °C 44 % 14 km/h (24 km/h) 0 mm0 mm 60000 m 1019.8 hPa
01:12 26.9 °C 14 °C 45 % 11 km/h (23 km/h) 0 mm0 mm 60000 m 1019.8 hPa
01:06 26.8 °C 13.9 °C 45 % 11 km/h (20 km/h) 0 mm0 mm 60000 m 1019.8 hPa
01:00 27 °C 13.7 °C 44 % 13 km/h (22 km/h) 0 mm0 mm 60000 m 1019.9 hPa
00:54 27.1 °C 13.8 °C 44 % 13 km/h (27 km/h) 0 mm0 mm 60000 m 1019.9 hPa
00:48 27.2 °C 13.9 °C 44 % 15 km/h (27 km/h) 0 mm0 mm 60000 m 1019.9 hPa
00:42 27.3 °C 14 °C 44 % 16 km/h (27 km/h) 0 mm0 mm 60000 m 1019.9 hPa
00:36 27.2 °C 13.9 °C 44 % 15 km/h (27 km/h) 0 mm0 mm 60000 m 1019.9 hPa
00:30 27.1 °C 13.8 °C 44 % 14 km/h (26 km/h) 0 mm0 mm 60000 m 1019.9 hPa
00:24 27.1 °C 13.8 °C 44 % 14 km/h (22 km/h) 0 mm0 mm 60000 m 1020 hPa
00:18 27.2 °C 13.9 °C 44 % 14 km/h (22 km/h) 0 mm0 mm 60000 m 1020 hPa
00:12 27.1 °C 13.8 °C 44 % 14 km/h (22 km/h) 0 mm0 mm 60000 m 1020 hPa
00:06 27.1 °C 13.8 °C 44 % 13 km/h (21 km/h) 0 mm0 mm 60000 m 1020 hPa
00:00 27.2 °C 13.5 °C 43 % 13 km/h (22 km/h) 0 mm0 mm 60000 m 1020.1 hPa

Données via Météo-France

Relevés météo à Nimes-Garons

Cette page rassemble les observations de la station de Nimes-Garons : température, humidité, vent, précipitations et pression atmosphérique. Les graphiques facilitent le suivi de la journée, tandis que le tableau donne accès aux mesures horaires et infra-horaires disponibles.

Pour replacer ces mesures dans leur contexte, consultez la climatologie de Nimes-Garons ainsi que ses normales et records. Retrouvez aussi la carte des observations météo en temps réel.